createdAt,value
2023-04-15T00:00:57.555Z,99288.13
2023-04-15T00:03:25.127Z,99268.31
2023-04-15T00:05:52.306Z,99273.16
2023-04-15T00:08:19.533Z,99275.78
2023-04-15T00:10:46.810Z,99281.56
2023-04-15T00:13:13.693Z,99273.44
2023-04-15T00:15:40.781Z,99277.13
2023-04-15T00:18:10.503Z,99273.47
2023-04-15T00:20:37.728Z,99279.94
2023-04-15T00:23:05.624Z,99285.50
2023-04-15T00:25:32.502Z,99275.78
2023-04-15T00:27:59.475Z,99278.91
2023-04-15T00:30:26.658Z,99278.91
2023-04-15T00:32:53.711Z,99271.31
2023-04-15T00:35:22.226Z,99270.34
2023-04-15T00:37:51.436Z,99265.53
2023-04-15T00:40:21.188Z,99283.03
2023-04-15T00:42:48.105Z,99281.38
2023-04-15T00:45:15.710Z,99278.28
2023-04-15T00:47:43.896Z,99276.94
2023-04-15T00:50:12.665Z,99271.31
2023-04-15T00:52:40.260Z,99278.44
2023-04-15T00:55:07.889Z,99267.03
2023-04-15T00:57:35.550Z,99271.97
2023-04-15T01:00:04.330Z,99267.72
2023-04-15T01:02:32.067Z,99262.59
2023-04-15T01:04:58.929Z,99271.34
2023-04-15T01:07:26.242Z,99267.38
2023-04-15T01:09:53.716Z,99269.84
2023-04-15T01:12:20.752Z,99257.47
2023-04-15T01:14:48.238Z,99267.38
2023-04-15T01:17:15.002Z,99267.38
2023-04-15T01:19:42.021Z,99278.09
2023-04-15T01:22:09.234Z,99273.34
2023-04-15T01:24:38.476Z,99268.84
2023-04-15T01:27:06.017Z,99276.63
2023-04-15T01:29:35.948Z,99276.44
2023-04-15T01:32:02.697Z,99276.94
2023-04-15T01:34:29.487Z,99275.28
2023-04-15T01:36:56.155Z,99279.44
2023-04-15T01:39:23.008Z,99289.00
2023-04-15T01:41:49.737Z,99282.88
2023-04-15T01:44:16.818Z,99284.19
2023-04-15T01:46:43.692Z,99276.09
2023-04-15T01:49:10.691Z,99276.28
2023-04-15T01:51:37.493Z,99274.63
2023-04-15T01:54:04.271Z,99280.06
2023-04-15T01:56:30.949Z,99274.31
2023-04-15T01:58:57.747Z,99282.06
2023-04-15T02:01:25.069Z,99275.13
2023-04-15T02:03:52.281Z,99289.31
2023-04-15T02:06:19.432Z,99285.06
2023-04-15T02:08:46.208Z,99278.28
2023-04-15T02:11:12.930Z,99288.50
2023-04-15T02:13:39.660Z,99283.88
2023-04-15T02:16:19.196Z,99288.66
2023-04-15T02:18:47.137Z,99290.47
2023-04-15T02:21:14.545Z,99284.72
2023-04-15T02:23:41.629Z,99269.84
2023-04-15T02:26:08.357Z,99275.81
2023-04-15T02:28:35.883Z,99275.47
2023-04-15T02:31:08.261Z,99282.41
2023-04-15T02:33:35.503Z,99285.03
2023-04-15T02:36:02.324Z,99282.72
2023-04-15T02:38:29.196Z,99279.25
2023-04-15T02:40:56.699Z,99283.22
2023-04-15T02:43:23.635Z,99273.78
2023-04-15T02:45:51.459Z,99283.72
2023-04-15T02:48:19.784Z,99282.53
2023-04-15T02:50:47.958Z,99276.44
2023-04-15T02:53:16.178Z,99281.09
2023-04-15T02:55:43.080Z,99271.50
2023-04-15T02:58:09.998Z,99277.94
2023-04-15T03:00:36.850Z,99278.09
2023-04-15T03:03:05.742Z,99274.66
2023-04-15T03:05:32.705Z,99281.38
2023-04-15T03:08:01.517Z,99277.59
2023-04-15T03:10:28.637Z,99280.25
2023-04-15T03:12:55.721Z,99271.50
2023-04-15T03:15:23.919Z,99279.25
2023-04-15T03:17:52.891Z,99274.97
2023-04-15T03:20:19.901Z,99277.94
2023-04-15T03:22:48.098Z,99273.63
2023-04-15T03:25:14.906Z,99269.38
2023-04-15T03:27:42.685Z,99281.72
2023-04-15T03:30:09.930Z,99274.97
2023-04-15T03:32:38.788Z,99279.75
2023-04-15T03:35:07.025Z,99282.88
2023-04-15T03:37:33.736Z,99276.78
2023-04-15T03:40:00.612Z,99286.19
2023-04-15T03:42:27.332Z,99286.69
2023-04-15T03:44:54.150Z,99288.66
2023-04-15T03:47:21.153Z,99296.75
2023-04-15T03:49:47.915Z,99292.13
2023-04-15T03:52:14.686Z,99287.00
2023-04-15T03:54:41.503Z,99299.56
2023-04-15T03:57:08.222Z,99301.03
2023-04-15T03:59:34.954Z,99297.09
2023-04-15T04:02:01.909Z,99300.72
2023-04-15T04:04:28.762Z,99295.91
2023-04-15T04:06:55.632Z,99296.44
2023-04-15T04:09:22.428Z,99298.56
2023-04-15T04:11:49.305Z,99296.94
2023-04-15T04:14:16.189Z,99297.56
2023-04-15T04:16:42.977Z,99287.53
2023-04-15T04:19:09.746Z,99280.91
2023-04-15T04:21:36.703Z,99299.06
2023-04-15T04:24:03.502Z,99295.91
2023-04-15T04:26:30.460Z,99295.44
2023-04-15T04:28:57.174Z,99293.94
2023-04-15T04:31:23.960Z,99290.97
2023-04-15T04:33:50.687Z,99296.59
2023-04-15T04:36:17.431Z,99299.06
2023-04-15T04:38:44.108Z,99301.69
2023-04-15T04:41:11.013Z,99308.66
2023-04-15T04:43:37.718Z,99301.03
2023-04-15T04:46:04.609Z,99313.59
2023-04-15T04:48:31.330Z,99309.63
2023-04-15T04:50:58.222Z,99311.94
2023-04-15T04:53:24.903Z,99310.13
2023-04-15T04:55:51.758Z,99313.59
2023-04-15T04:58:18.471Z,99316.59
2023-04-15T05:00:45.309Z,99315.09
2023-04-15T05:03:12.315Z,99311.59
2023-04-15T05:05:41.141Z,99316.88
2023-04-15T05:08:07.841Z,99312.28
2023-04-15T05:10:34.704Z,99314.25
2023-04-15T05:13:01.582Z,99313.94
2023-04-15T05:15:28.435Z,99315.59
2023-04-15T05:17:55.488Z,99313.78
2023-04-15T05:20:22.406Z,99319.88
2023-04-15T05:22:49.180Z,99318.56
2023-04-15T05:25:16.400Z,99329.31
2023-04-15T05:27:43.209Z,99327.13
2023-04-15T05:30:12.162Z,99322.53
2023-04-15T05:32:40.424Z,99320.88
2023-04-15T05:35:08.149Z,99326.16
2023-04-15T05:37:34.876Z,99324.50
2023-04-15T05:40:01.632Z,99332.94
2023-04-15T05:42:28.446Z,99332.41
2023-04-15T05:44:55.208Z,99331.59
2023-04-15T05:47:22.238Z,99348.59
2023-04-15T05:49:49.006Z,99336.88
2023-04-15T05:52:15.649Z,99347.97
2023-04-15T05:54:42.320Z,99346.97
2023-04-15T05:57:09.031Z,99349.28
2023-04-15T05:59:36.148Z,99349.28
2023-04-15T06:02:03.019Z,99353.25
2023-04-15T06:04:29.843Z,99352.59
2023-04-15T06:06:56.829Z,99352.06
2023-04-15T06:09:23.828Z,99367.28
2023-04-15T06:11:52.128Z,99362.66
2023-04-15T06:14:22.312Z,99366.13
2023-04-15T06:16:49.130Z,99366.47
2023-04-15T06:19:16.049Z,99361.84
2023-04-15T06:21:42.982Z,99365.63
2023-04-15T06:24:09.788Z,99368.28
2023-04-15T06:26:36.479Z,99364.16
2023-04-15T06:29:03.438Z,99376.88
2023-04-15T06:31:30.761Z,99373.38
2023-04-15T06:33:57.513Z,99382.00
2023-04-15T06:36:24.237Z,99382.47
2023-04-15T06:38:51.125Z,99374.69
2023-04-15T06:41:18.280Z,99387.13
2023-04-15T06:43:45.002Z,99384.94
2023-04-15T06:46:11.842Z,99391.09
2023-04-15T06:48:38.966Z,99385.78
2023-04-15T06:51:06.212Z,99381.66
2023-04-15T06:53:32.916Z,99391.25
2023-04-15T06:56:00.344Z,99390.41
2023-04-15T06:58:27.278Z,99388.09
2023-04-15T07:00:54.068Z,99400.81
2023-04-15T07:03:20.854Z,99399.84
2023-04-15T07:05:47.725Z,99404.78
2023-04-15T07:08:14.797Z,99391.25
2023-04-15T07:10:41.536Z,99403.81
2023-04-15T07:13:08.994Z,99404.31
2023-04-15T07:15:35.896Z,99413.41
2023-04-15T07:18:02.762Z,99406.44
2023-04-15T07:20:29.679Z,99424.78
2023-04-15T07:22:56.440Z,99421.16
2023-04-15T07:25:23.473Z,99418.00
2023-04-15T07:27:50.584Z,99420.81
2023-04-15T07:30:17.477Z,99417.03
2023-04-15T07:32:44.316Z,99429.75
2023-04-15T07:35:11.719Z,99425.94
2023-04-15T07:37:38.551Z,99430.06
2023-04-15T07:40:07.293Z,99422.66
2023-04-15T07:42:34.518Z,99439.00
2023-04-15T07:45:01.370Z,99437.34
2023-04-15T07:47:28.268Z,99442.31
2023-04-15T07:49:55.469Z,99431.91
2023-04-15T07:52:22.403Z,99448.41
2023-04-15T07:54:49.265Z,99450.91
2023-04-15T07:57:17.095Z,99444.44
2023-04-15T07:59:43.887Z,99440.81
2023-04-15T08:02:11.854Z,99457.03
2023-04-15T08:04:39.026Z,99452.56
2023-04-15T08:07:06.216Z,99442.78
2023-04-15T08:09:32.995Z,99448.94
2023-04-15T08:11:59.782Z,99457.69
2023-04-15T08:14:27.108Z,99461.97
2023-04-15T08:16:53.856Z,99450.72
2023-04-15T08:19:21.244Z,99449.56
2023-04-15T08:21:47.941Z,99470.22
2023-04-15T08:24:14.664Z,99478.69
2023-04-15T08:26:42.087Z,99473.69
2023-04-15T08:29:09.281Z,99475.19
2023-04-15T08:31:36.103Z,99477.66
2023-04-15T08:34:02.962Z,99478.84
2023-04-15T08:36:29.771Z,99474.19
2023-04-15T08:38:56.676Z,99476.34
2023-04-15T08:41:25.729Z,99478.00
2023-04-15T08:43:54.854Z,99473.03
2023-04-15T08:46:22.789Z,99488.09
2023-04-15T08:48:50.218Z,99478.84
2023-04-15T08:51:18.693Z,99493.41
2023-04-15T08:53:47.565Z,99500.00
2023-04-15T08:56:16.971Z,99487.44
2023-04-15T08:58:44.930Z,99493.88
2023-04-15T09:01:13.301Z,99491.56
2023-04-15T09:03:40.716Z,99510.91
2023-04-15T09:06:07.857Z,99495.03
2023-04-15T09:08:35.930Z,99512.38
2023-04-15T09:11:03.879Z,99512.91
2023-04-15T09:13:31.043Z,99512.22
2023-04-15T09:15:58.741Z,99518.19
2023-04-15T09:18:31.092Z,99506.91
2023-04-15T09:21:06.127Z,99515.66
2023-04-15T09:23:33.078Z,99532.88
2023-04-15T09:25:59.840Z,99532.88
2023-04-15T09:28:26.722Z,99534.19
2023-04-15T09:30:57.147Z,99529.56
2023-04-15T09:33:26.028Z,99532.84
2023-04-15T09:36:03.540Z,99535.16
2023-04-15T09:38:31.396Z,99538.31
2023-04-15T09:40:59.066Z,99526.25
2023-04-15T09:43:40.444Z,99535.81
2023-04-15T09:46:07.343Z,99521.44
2023-04-15T09:48:36.886Z,99527.72
2023-04-15T09:51:03.782Z,99529.31
2023-04-15T09:53:34.939Z,99523.19
2023-04-15T09:56:02.653Z,99526.59
2023-04-15T09:58:33.668Z,99525.59
2023-04-15T10:01:03.640Z,99528.69
2023-04-15T10:03:42.425Z,99525.91
2023-04-15T10:06:10.111Z,99527.09
2023-04-15T10:08:36.964Z,99529.75
2023-04-15T10:11:05.031Z,99529.06
2023-04-15T10:13:37.542Z,99523.09
2023-04-15T10:16:11.941Z,99536.16
2023-04-15T10:18:43.860Z,99528.53
2023-04-15T10:21:10.844Z,99532.69
2023-04-15T10:23:38.715Z,99529.72
2023-04-15T10:26:06.732Z,99531.88
2023-04-15T10:28:33.575Z,99528.44
2023-04-15T10:31:01.696Z,99530.88
2023-04-15T10:33:28.928Z,99519.09
2023-04-15T10:35:56.687Z,99535.56
2023-04-15T10:38:40.480Z,99513.81
2023-04-15T10:41:28.106Z,99517.09
2023-04-15T10:44:01.094Z,99518.41
2023-04-15T10:46:40.441Z,99524.47
2023-04-15T10:49:24.482Z,99514.09
2023-04-15T10:51:53.746Z,99505.09
2023-04-15T10:54:26.617Z,99513.88
2023-04-15T10:57:23.425Z,99515.81
2023-04-15T11:00:11.307Z,99508.34
2023-04-15T11:02:53.270Z,99514.75
2023-04-15T11:05:22.304Z,99509.97
2023-04-15T11:07:51.894Z,99520.75
2023-04-15T11:10:18.693Z,99511.88
2023-04-15T11:12:46.173Z,99516.22
2023-04-15T11:15:45.712Z,99514.56
2023-04-15T11:18:20.324Z,99517.06
2023-04-15T11:20:50.616Z,99509.53
2023-04-15T11:23:28.785Z,99508.81
2023-04-15T11:25:59.981Z,99516.53
2023-04-15T11:28:28.614Z,99516.28
2023-04-15T11:30:56.620Z,99514.97
2023-04-15T11:33:24.508Z,99518.38
2023-04-15T11:35:54.210Z,99526.09
2023-04-15T11:38:22.350Z,99537.41
2023-04-15T11:40:51.429Z,99537.66
2023-04-15T11:43:23.118Z,99544.06
2023-04-15T11:45:58.403Z,99547.41
2023-04-15T11:48:27.982Z,99563.19
2023-04-15T11:50:57.006Z,99550.53
2023-04-15T11:53:24.655Z,99552.13
2023-04-15T11:55:53.992Z,99556.47
2023-04-15T11:58:23.424Z,99550.31
2023-04-15T12:00:53.137Z,99543.69
2023-04-15T12:03:26.165Z,99543.22
2023-04-15T12:06:19.200Z,99541.56
2023-04-15T12:08:58.375Z,99541.91
2023-04-15T12:11:31.456Z,99529.50
2023-04-15T12:14:12.779Z,99531.16
2023-04-15T12:16:49.751Z,99537.09
2023-04-15T12:19:23.475Z,99541.72
2023-04-15T12:21:51.074Z,99538.19
2023-04-15T12:24:22.851Z,99544.66
2023-04-15T12:26:53.165Z,99533.03
2023-04-15T12:29:24.982Z,99542.97
2023-04-15T12:31:54.509Z,99552.56
2023-04-15T12:34:30.001Z,99547.44
2023-04-15T12:36:57.977Z,99561.97
2023-04-15T12:39:26.847Z,99547.41
2023-04-15T12:41:55.327Z,99557.78
2023-04-15T12:44:25.338Z,99569.25
2023-04-15T12:46:55.308Z,99567.06
2023-04-15T12:49:22.171Z,99565.84
2023-04-15T12:51:50.749Z,99565.63
2023-04-15T12:54:18.598Z,99577.84
2023-04-15T12:56:46.613Z,99584.75
2023-04-15T12:59:14.112Z,99575.78
2023-04-15T13:01:41.489Z,99586.91
2023-04-15T13:04:09.085Z,99595.81
2023-04-15T13:06:36.872Z,99594.13
2023-04-15T13:09:05.629Z,99593.81
2023-04-15T13:11:36.757Z,99595.31
2023-04-15T13:14:08.831Z,99597.84
2023-04-15T13:16:36.257Z,99604.03
2023-04-15T13:19:04.250Z,99607.88
2023-04-15T13:21:35.251Z,99600.97
2023-04-15T13:24:03.079Z,99597.19
2023-04-15T13:26:29.917Z,99587.63
2023-04-15T13:28:56.847Z,99583.69
2023-04-15T13:31:23.618Z,99584.72
2023-04-15T13:33:50.325Z,99589.53
2023-04-15T13:36:17.090Z,99594.84
2023-04-15T13:38:43.830Z,99594.53
2023-04-15T13:41:10.578Z,99603.81
2023-04-15T13:43:37.658Z,99611.75
2023-04-15T13:46:04.546Z,99603.47
2023-04-15T13:48:31.591Z,99592.03
2023-04-15T13:50:58.341Z,99589.53
2023-04-15T13:53:33.907Z,99577.25
2023-04-15T13:56:09.626Z,99583.63
2023-04-15T13:58:37.592Z,99583.75
2023-04-15T14:01:06.277Z,99585.75
2023-04-15T14:03:35.053Z,99598.63
2023-04-15T14:06:02.302Z,99605.59
2023-04-15T14:08:30.117Z,99615.31
2023-04-15T14:10:57.781Z,99617.34
2023-04-15T14:13:25.292Z,99614.00
2023-04-15T14:15:52.055Z,99613.19
2023-04-15T14:18:18.809Z,99631.13
2023-04-15T14:20:45.494Z,99632.72
2023-04-15T14:23:12.217Z,99645.63
2023-04-15T14:25:41.789Z,99649.13
2023-04-15T14:28:08.520Z,99659.06
2023-04-15T14:30:35.706Z,99656.63
2023-04-15T14:33:02.792Z,99663.94
2023-04-15T14:35:29.602Z,99661.81
2023-04-15T14:37:56.672Z,99662.63
2023-04-15T14:40:23.476Z,99669.91
2023-04-15T14:42:50.402Z,99663.66
2023-04-15T14:45:17.905Z,99662.34
2023-04-15T14:47:45.058Z,99669.66
2023-04-15T14:50:12.160Z,99658.06
2023-04-15T14:52:39.074Z,99659.69
2023-04-15T14:55:06.672Z,99656.06
2023-04-15T14:57:33.686Z,99651.09
2023-04-15T15:00:00.465Z,99650.13
2023-04-15T15:02:38.513Z,99642.34
2023-04-15T15:05:07.232Z,99651.56
2023-04-15T15:07:34.103Z,99653.59
2023-04-15T15:10:00.847Z,99657.22
2023-04-15T15:12:27.540Z,99667.16
2023-04-15T15:14:55.742Z,99664.50
2023-04-15T15:17:22.514Z,99682.06
2023-04-15T15:19:49.513Z,99685.38
2023-04-15T15:22:16.296Z,99681.91
2023-04-15T15:24:42.953Z,99691.22
2023-04-15T15:27:10.450Z,99696.63
2023-04-15T15:29:38.250Z,99703.25
2023-04-15T15:32:05.272Z,99695.47
2023-04-15T15:34:32.042Z,99702.59
2023-04-15T15:36:58.814Z,99704.44
2023-04-15T15:39:25.629Z,99711.72
2023-04-15T15:41:52.407Z,99707.59
2023-04-15T15:44:19.136Z,99705.09
2023-04-15T15:46:46.275Z,99712.88
2023-04-15T15:49:13.079Z,99715.53
2023-04-15T15:51:39.863Z,99704.78
2023-04-15T15:54:06.567Z,99712.41
2023-04-15T15:56:34.495Z,99714.56
2023-04-15T15:59:01.319Z,99719.69
2023-04-15T16:01:28.371Z,99717.88
2023-04-15T16:03:55.229Z,99724.34
2023-04-15T16:06:22.004Z,99720.69
2023-04-15T16:08:48.814Z,99721.53
2023-04-15T16:11:15.638Z,99724.53
2023-04-15T16:13:42.403Z,99722.19
2023-04-15T16:16:09.260Z,99724.03
2023-04-15T16:18:36.003Z,99730.47
2023-04-15T16:21:02.807Z,99726.84
2023-04-15T16:23:29.544Z,99727.03
2023-04-15T16:25:56.341Z,99723.69
2023-04-15T16:28:26.443Z,99725.69
2023-04-15T16:30:55.409Z,99720.75
2023-04-15T16:33:22.250Z,99712.63
2023-04-15T16:35:48.941Z,99729.84
2023-04-15T16:38:15.849Z,99731.66
2023-04-15T16:40:42.591Z,99726.53
2023-04-15T16:43:11.306Z,99735.31
2023-04-15T16:45:38.356Z,99748.56
2023-04-15T16:48:05.294Z,99745.91
2023-04-15T16:50:32.041Z,99744.41
2023-04-15T16:52:58.848Z,99749.56
2023-04-15T16:55:25.732Z,99748.88
2023-04-15T16:58:02.619Z,99757.97
2023-04-15T17:00:36.269Z,99759.19
2023-04-15T17:03:03.681Z,99750.72
2023-04-15T17:05:33.456Z,99756.69
2023-04-15T17:08:00.701Z,99763.47
2023-04-15T17:10:28.164Z,99774.22
2023-04-15T17:12:56.573Z,99760.97
2023-04-15T17:15:23.726Z,99776.41
2023-04-15T17:17:50.630Z,99774.22
2023-04-15T17:20:17.627Z,99772.25
2023-04-15T17:22:46.403Z,99785.50
2023-04-15T17:25:13.789Z,99786.66
2023-04-15T17:27:41.025Z,99788.94
2023-04-15T17:30:08.392Z,99788.47
2023-04-15T17:32:35.545Z,99798.34
2023-04-15T17:35:06.009Z,99794.69
2023-04-15T17:37:33.710Z,99796.38
2023-04-15T17:40:00.694Z,99799.19
2023-04-15T17:42:27.474Z,99809.25
2023-04-15T17:44:54.194Z,99815.88
2023-04-15T17:47:21.293Z,99826.78
2023-04-15T17:49:48.020Z,99825.44
2023-04-15T17:52:14.723Z,99800.59
2023-04-15T17:54:41.572Z,99830.41
2023-04-15T17:57:09.311Z,99830.22
2023-04-15T17:59:36.112Z,99821.28
2023-04-15T18:02:02.964Z,99837.16
2023-04-15T18:04:29.973Z,99851.41
2023-04-15T18:06:56.771Z,99857.00
2023-04-15T18:09:23.531Z,99862.63
2023-04-15T18:11:50.493Z,99859.63
2023-04-15T18:14:27.008Z,99864.56
2023-04-15T18:16:57.919Z,99866.41
2023-04-15T18:19:25.831Z,99865.72
2023-04-15T18:21:53.118Z,99872.84
2023-04-15T18:24:19.903Z,99883.72
2023-04-15T18:26:48.856Z,99892.66
2023-04-15T18:29:16.403Z,99886.69
2023-04-15T18:31:43.407Z,99889.50
2023-04-15T18:34:10.455Z,99900.06
2023-04-15T18:36:37.211Z,99899.09
2023-04-15T18:39:04.707Z,99912.50
2023-04-15T18:41:31.679Z,99914.28
2023-04-15T18:43:58.405Z,99928.53
2023-04-15T18:46:25.465Z,99939.09
2023-04-15T18:48:52.191Z,99953.38
2023-04-15T18:51:19.182Z,99957.53
2023-04-15T18:53:46.003Z,99963.47
2023-04-15T18:56:12.757Z,99956.69
2023-04-15T18:59:27.105Z,99964.19
2023-04-15T19:01:26.520Z,99964.69
2023-04-15T19:03:53.446Z,99954.41
2023-04-15T19:06:20.575Z,99974.44
2023-04-15T19:08:47.386Z,99978.22
2023-04-15T19:11:14.295Z,99980.06
2023-04-15T19:13:41.102Z,99985.84
2023-04-15T19:16:07.928Z,99987.69
2023-04-15T19:18:34.632Z,99985.84
2023-04-15T19:21:01.682Z,99984.81
2023-04-15T19:23:28.607Z,99980.06
2023-04-15T19:25:57.074Z,99978.00
2023-04-15T19:28:23.827Z,99985.63
2023-04-15T19:30:52.401Z,99989.56
2023-04-15T19:33:19.155Z,99986.94
2023-04-15T19:35:46.747Z,99996.84
2023-04-15T19:38:13.422Z,99978.81
2023-04-15T19:40:40.132Z,99989.56
2023-04-15T19:43:06.956Z,99991.09
2023-04-15T19:45:34.198Z,99989.28
2023-04-15T19:48:01.118Z,99993.91
2023-04-15T19:50:27.949Z,99989.91
2023-04-15T19:52:54.761Z,99990.75
2023-04-15T19:55:21.549Z,99989.91
2023-04-15T19:57:48.272Z,99979.31
2023-04-15T20:00:15.770Z,99970.19
2023-04-15T20:02:42.647Z,99974.16
2023-04-15T20:05:10.195Z,99976.31
2023-04-15T20:07:37.319Z,99992.53
2023-04-15T20:10:12.500Z,99993.22
2023-04-15T20:12:50.108Z,99989.38
2023-04-15T20:15:20.158Z,100004.94
2023-04-15T20:17:46.956Z,100001.63
2023-04-15T20:20:13.884Z,100005.44
2023-04-15T20:22:41.175Z,100004.72
2023-04-15T20:25:08.365Z,100006.19
2023-04-15T20:27:35.231Z,100008.81
2023-04-15T20:30:03.393Z,100009.66
2023-04-15T20:32:32.758Z,100003.69
2023-04-15T20:34:59.460Z,100001.63
2023-04-15T20:37:26.170Z,100009.28
2023-04-15T20:39:53.031Z,100013.91
2023-04-15T20:42:19.808Z,100022.69
2023-04-15T20:44:46.631Z,100025.44
2023-04-15T20:47:13.446Z,100019.50
2023-04-15T20:49:40.456Z,100015.88
2023-04-15T20:52:08.335Z,100007.72
2023-04-15T20:54:35.367Z,100015.34
2023-04-15T20:57:02.140Z,100003.56
2023-04-15T20:59:28.966Z,100022.47
2023-04-15T21:01:57.114Z,100015.19
2023-04-15T21:04:24.544Z,100014.88
2023-04-15T21:06:52.361Z,100022.88
2023-04-15T21:09:19.148Z,100020.78
2023-04-15T21:12:00.612Z,100022.44
2023-04-15T21:14:28.190Z,100021.16
2023-04-15T21:16:54.874Z,100014.69
2023-04-15T21:19:21.815Z,100026.78
2023-04-15T21:21:48.603Z,100023.00
2023-04-15T21:24:15.506Z,100016.03
2023-04-15T21:26:42.206Z,100014.41
2023-04-15T21:29:11.436Z,100012.75
2023-04-15T21:31:38.773Z,100020.22
2023-04-15T21:34:05.811Z,100016.91
2023-04-15T21:36:32.710Z,100018.69
2023-04-15T21:39:00.160Z,100018.03
2023-04-15T21:41:27.301Z,100015.91
2023-04-15T21:43:54.132Z,100012.09
2023-04-15T21:46:25.422Z,100015.13
2023-04-15T21:48:55.864Z,100012.31
2023-04-15T21:51:22.710Z,100014.47
2023-04-15T21:53:49.458Z,100022.69
2023-04-15T21:56:16.308Z,100017.06
2023-04-15T21:58:43.172Z,100022.19
2023-04-15T22:01:09.992Z,100020.53
2023-04-15T22:03:37.025Z,100022.63
2023-04-15T22:06:04.352Z,100033.69
2023-04-15T22:08:44.630Z,100032.00
2023-04-15T22:11:27.848Z,100033.03
2023-04-15T22:13:56.692Z,100038.16
2023-04-15T22:16:25.132Z,100032.78
2023-04-15T22:18:52.146Z,100043.44
2023-04-15T22:21:18.881Z,100048.75
2023-04-15T22:23:47.599Z,100052.22
2023-04-15T22:26:14.398Z,100047.53
2023-04-15T22:28:41.839Z,100057.97
2023-04-15T22:31:08.723Z,100070.88
2023-04-15T22:33:35.578Z,100072.72
2023-04-15T22:36:02.578Z,100070.22
2023-04-15T22:38:29.314Z,100074.66
2023-04-15T22:40:56.076Z,100075.53
2023-04-15T22:43:22.758Z,100082.75
2023-04-15T22:45:54.921Z,100083.88
2023-04-15T22:48:22.591Z,100086.69
2023-04-15T22:50:49.760Z,100090.31
2023-04-15T22:53:17.490Z,100096.75
2023-04-15T22:55:48.757Z,100105.53
2023-04-15T22:58:17.157Z,100100.69
2023-04-15T23:00:44.466Z,100099.31
2023-04-15T23:03:11.589Z,100098.78
2023-04-15T23:05:40.146Z,100102.72
2023-04-15T23:08:07.529Z,100113.28
2023-04-15T23:10:34.336Z,100097.72
2023-04-15T23:13:01.084Z,100104.69
2023-04-15T23:15:27.780Z,100114.25
2023-04-15T23:17:54.579Z,100110.78
2023-04-15T23:20:21.340Z,100106.31
2023-04-15T23:22:48.322Z,100108.91
2023-04-15T23:25:15.415Z,100109.91
2023-04-15T23:27:42.126Z,100108.25
2023-04-15T23:30:09.052Z,100103.25
2023-04-15T23:32:36.074Z,100110.88
2023-04-15T23:35:03.320Z,100110.34
2023-04-15T23:37:31.632Z,100116.31
2023-04-15T23:39:58.474Z,100111.34
2023-04-15T23:42:26.056Z,100117.69
2023-04-15T23:44:53.061Z,100124.78
2023-04-15T23:47:20.170Z,100130.06
2023-04-15T23:49:47.170Z,100125.22
2023-04-15T23:52:13.997Z,100134.53
2023-04-15T23:54:40.918Z,100132.19
2023-04-15T23:57:07.666Z,100141.09
2023-04-15T23:59:34.481Z,100130.84
